Time;durP1;ratioP1;P1;durP2;ratioP2;P2;SDS_P1;SDS_P2;PMS_P1;PMS_P2;Temp;Humidity;BMP_temperature;BMP_pressure;BME280_temperature;BME280_humidity;BME280_pressure;Samples;Min_cycle;Max_cycle;Signal;HPM_P1;HPM_P2
2022/03/12 00:02:35;;;;;;;6.97;6.40;;;11.10;27.90;;;;;;4927362;28;20806;-86
2022/03/12 00:05:07;;;;;;;7.93;7.17;;;11.10;28.00;;;;;;4949768;29;20450;-86
2022/03/12 00:07:42;;;;;;;7.73;7.13;;;13.20;28.40;;;;;;4942380;29;20470;-86
2022/03/12 00:14:11;;;;;;;8.60;7.80;;;11.60;27.70;;;;;;4857475;29;20434;-86
2022/03/12 00:20:24;;;;;;;;;;;;;;;;;;;;;
2022/03/12 00:23:12;;;;;;;6.90;6.40;;;12.40;28.80;;;;;;4863727;29;20458;-86
2022/03/12 00:25:45;;;;;;;8.30;7.43;;;10.80;28.10;;;;;;4904668;29;20494;-86
2022/03/12 00:32:00;;;;;;;7.53;6.97;;;11.10;27.70;;;;;;4924250;29;20427;-86
2022/03/12 00:35:04;;;;;;;;;;;;;;;;;;;;;
2022/03/12 00:37:35;;;;;;;8.17;7.57;;;11.00;28.30;;;;;;4925082;29;20492;-87
2022/03/12 00:40:08;;;;;;;6.87;6.27;;;11.50;28.40;;;;;;4924973;29;20428;-86
2022/03/12 00:42:59;;;;;;;7.40;6.90;;;11.70;27.90;;;;;;4924021;29;20424;-86
2022/03/12 00:45:59;;;;;;;8.23;7.50;;;11.10;27.70;;;;;;4912271;29;20432;-86
2022/03/12 00:48:33;;;;;;;8.03;7.40;;;10.70;28.40;;;;;;4927945;29;20481;-85
2022/03/12 00:51:18;;;;;;;8.10;7.60;;;9.20;28.30;;;;;;4922344;29;20416;-84
2022/03/12 00:54:03;;;;;;;7.60;7.00;;;13.00;28.90;;;;;;4943224;29;20434;-87
2022/03/12 00:57:26;;;;;;;9.20;7.73;;;10.90;28.50;;;;;;4939588;29;20468;-85
2022/03/12 00:59:52;;;;;;;11.73;7.10;;;9.90;28.00;;;;;;4938666;29;20439;-84
2022/03/12 01:06:08;;;;;;;7.77;7.13;;;12.30;29.80;;;;;;4939866;29;20205;-86
2022/03/12 01:09:04;;;;;;;7.90;7.10;;;10.90;28.30;;;;;;4931067;29;20508;-85
2022/03/12 01:12:36;;;;;;;6.77;6.37;;;11.70;30.10;;;;;;4921017;29;20432;-84
2022/03/12 01:15:18;;;;;;;8.03;7.33;;;10.60;28.10;;;;;;4908584;29;20463;-85
2022/03/12 01:18:18;;;;;;;7.67;6.97;;;10.80;29.10;;;;;;4933075;29;20446;-85
2022/03/12 01:21:04;;;;;;;12.47;7.53;;;10.60;28.20;;;;;;4920406;29;20993;-86
2022/03/12 01:24:01;;;;;;;9.07;7.63;;;10.20;28.80;;;;;;4914212;29;20445;-86
2022/03/12 01:29:31;;;;;;;7.90;7.27;;;11.10;29.30;;;;;;5027731;23;21065;-86
2022/03/12 01:32:15;;;;;;;11.30;8.23;;;9.60;29.40;;;;;;4949650;29;20435;-85
2022/03/12 01:34:51;;;;;;;8.27;7.53;;;10.40;29.10;;;;;;4933490;29;20451;-85
2022/03/12 01:38:00;;;;;;;8.47;7.53;;;10.40;28.60;;;;;;4929528;29;20442;-85
2022/03/12 01:40:39;;;;;;;8.83;8.17;;;12.10;29.40;;;;;;4911990;29;20439;-85
2022/03/12 01:43:22;;;;;;;8.87;7.70;;;10.50;29.60;;;;;;4923507;29;20434;-85
2022/03/12 01:46:48;;;;;;;;;;;;;;;;;;;;;
2022/03/12 01:49:24;;;;;;;10.53;7.00;;;11.00;29.30;;;;;;4963251;29;20462;-86
2022/03/12 01:52:46;;;;;;;7.43;6.90;;;10.30;29.30;;;;;;4920535;29;20443;-86
2022/03/12 01:58:35;;;;;;;6.43;6.00;;;11.00;29.10;;;;;;4953656;23;21075;-91
2022/03/12 02:01:01;;;;;;;7.97;7.40;;;10.60;28.90;;;;;;4923944;29;20446;-92
2022/03/12 02:03:29;;;;;;;8.43;7.80;;;10.50;29.20;;;;;;4923905;29;20538;-91
2022/03/12 02:05:56;;;;;;;7.93;7.20;;;10.40;28.90;;;;;;4916331;29;20446;-93
2022/03/12 02:08:22;;;;;;;7.47;6.87;;;10.50;29.00;;;;;;4925213;29;20934;-91
2022/03/12 02:10:50;;;;;;;9.07;8.20;;;10.50;29.00;;;;;;4920848;29;20434;-91
2022/03/12 02:13:17;;;;;;;8.20;7.47;;;10.80;29.30;;;;;;4940065;29;20924;-91
2022/03/12 02:15:43;;;;;;;7.60;7.00;;;11.00;29.40;;;;;;4936099;29;20425;-90
2022/03/12 02:18:11;;;;;;;9.10;8.30;;;10.30;29.20;;;;;;4939129;29;20490;-91
2022/03/12 02:20:38;;;;;;;7.00;6.30;;;10.40;29.20;;;;;;4941933;29;20411;-91
2022/03/12 02:23:07;;;;;;;7.93;7.23;;;10.60;29.50;;;;;;4920429;29;20455;-91
2022/03/12 02:25:33;;;;;;;8.50;7.60;;;10.40;29.30;;;;;;4920804;29;20514;-91
2022/03/12 02:28:02;;;;;;;11.77;7.77;;;10.30;29.50;;;;;;4930427;29;20818;-91
2022/03/12 02:30:37;;;;;;;7.07;6.40;;;10.40;29.60;;;;;;4935168;29;20419;-91
2022/03/12 02:33:04;;;;;;;8.80;8.20;;;10.40;29.60;;;;;;4933216;29;20448;-90
2022/03/12 02:35:34;;;;;;;8.67;7.97;;;10.40;29.60;;;;;;4946326;29;20431;-91
2022/03/12 02:38:01;;;;;;;9.53;7.57;;;10.60;29.70;;;;;;4920521;29;20489;-91
2022/03/12 02:40:27;;;;;;;7.93;7.33;;;10.40;29.60;;;;;;4922374;29;20412;-92
2022/03/12 02:42:56;;;;;;;8.60;7.83;;;10.40;29.70;;;;;;4949378;29;20446;-91
2022/03/12 02:45:23;;;;;;;17.13;10.43;;;10.30;30.00;;;;;;4939165;29;20665;-91
2022/03/12 02:47:49;;;;;;;8.67;7.77;;;10.40;29.80;;;;;;4949863;29;20980;-91
2022/03/12 02:50:14;;;;;;;8.23;7.57;;;9.80;30.10;;;;;;4938251;29;20417;-92
2022/03/12 02:52:42;;;;;;;6.80;6.30;;;10.30;29.90;;;;;;4937329;29;23617;-91
2022/03/12 02:55:13;;;;;;;9.13;7.80;;;10.20;29.70;;;;;;4956565;29;20175;-92
2022/03/12 02:57:44;;;;;;;7.80;7.10;;;10.20;29.80;;;;;;4936305;29;20458;-91
2022/03/12 03:00:13;;;;;;;7.77;7.17;;;10.30;30.00;;;;;;4937679;29;20428;-92
2022/03/12 03:02:40;;;;;;;10.40;9.60;;;10.20;30.00;;;;;;4919128;29;21029;-92
2022/03/12 03:05:44;;;;;;;15.47;8.57;;;10.40;31.00;;;;;;4952726;29;20491;-90
2022/03/12 03:08:12;;;;;;;8.20;7.60;;;11.00;31.10;;;;;;4918875;29;20533;-91
2022/03/12 03:10:47;;;;;;;9.13;7.90;;;10.10;30.30;;;;;;4939234;29;20407;-91
2022/03/12 03:13:21;;;;;;;7.37;6.67;;;10.10;30.40;;;;;;4923619;29;20983;-93
2022/03/12 03:15:59;;;;;;;7.63;6.57;;;10.10;30.50;;;;;;4920509;29;20408;-93
2022/03/12 03:18:29;;;;;;;8.60;7.80;;;10.10;30.50;;;;;;4918582;29;20442;-92
2022/03/12 03:20:56;;;;;;;8.63;7.83;;;10.20;30.80;;;;;;4935254;29;20415;-90
2022/03/12 03:23:24;;;;;;;11.33;6.63;;;10.00;31.00;;;;;;4939815;29;20458;-90
2022/03/12 03:25:50;;;;;;;8.27;7.57;;;10.00;30.70;;;;;;4954034;29;20441;-92
2022/03/12 03:28:15;;;;;;;8.67;7.83;;;10.00;30.90;;;;;;4956157;29;20478;-92
2022/03/12 03:30:41;;;;;;;8.80;8.20;;;9.90;31.60;;;;;;4962374;29;20187;-92
2022/03/12 03:33:09;;;;;;;8.60;7.70;;;9.90;31.60;;;;;;4927098;29;20242;-91
2022/03/12 03:35:38;;;;;;;8.13;7.53;;;9.80;31.80;;;;;;4931833;29;20799;-91
2022/03/12 03:38:04;;;;;;;9.17;8.27;;;9.90;31.80;;;;;;4953288;29;20597;-91
2022/03/12 03:40:30;;;;;;;11.57;8.77;;;9.80;32.10;;;;;;4924480;29;20431;-92
2022/03/12 03:42:55;;;;;;;7.63;7.03;;;9.80;32.20;;;;;;4933400;29;20466;-91
2022/03/12 03:45:25;;;;;;;7.60;6.83;;;9.80;32.40;;;;;;4933044;29;20199;-91
2022/03/12 03:47:51;;;;;;;8.37;7.23;;;9.80;32.20;;;;;;4946797;29;20210;-90
2022/03/12 03:50:18;;;;;;;9.03;8.23;;;9.80;32.40;;;;;;4937035;29;20427;-91
2022/03/12 03:52:45;;;;;;;9.57;8.57;;;9.60;32.10;;;;;;4919256;29;20513;-91
2022/03/12 03:55:10;;;;;;;9.10;7.10;;;9.80;32.40;;;;;;4945126;29;20426;-91
2022/03/12 03:57:36;;;;;;;8.70;7.90;;;10.80;32.20;;;;;;4919276;29;20542;-91
2022/03/12 04:00:07;;;;;;;10.67;8.10;;;9.80;32.60;;;;;;4921388;29;20183;-91
2022/03/12 04:02:32;;;;;;;8.60;7.90;;;9.90;32.80;;;;;;4920644;29;20342;-91
2022/03/12 04:04:58;;;;;;;9.40;8.50;;;9.80;32.80;;;;;;4925776;29;20450;-91
2022/03/12 04:07:25;;;;;;;10.50;9.50;;;9.80;33.00;;;;;;4930062;29;20218;-91
2022/03/12 04:09:50;;;;;;;8.60;7.90;;;9.80;33.40;;;;;;4939754;29;20233;-92
2022/03/12 04:12:16;;;;;;;8.60;7.30;;;9.80;33.60;;;;;;4922432;29;20435;-90
2022/03/12 04:14:41;;;;;;;9.17;8.43;;;9.80;34.00;;;;;;4941046;29;20211;-91
2022/03/12 04:17:07;;;;;;;8.70;7.73;;;9.50;33.70;;;;;;4935329;29;20439;-91
2022/03/12 04:19:34;;;;;;;9.10;8.30;;;9.90;34.00;;;;;;4917975;29;20700;-91
2022/03/12 04:22:00;;;;;;;7.90;7.17;;;9.80;34.10;;;;;;4928835;29;20431;-91
2022/03/12 04:24:26;;;;;;;10.27;7.87;;;10.00;33.40;;;;;;4935909;29;20441;-91
2022/03/12 04:26:52;;;;;;;8.90;7.90;;;10.20;33.70;;;;;;4951595;29;20475;-91
2022/03/12 04:29:19;;;;;;;8.40;7.80;;;10.00;33.50;;;;;;4924400;29;20809;-91
2022/03/12 04:31:48;;;;;;;8.30;7.60;;;9.70;34.70;;;;;;4932955;29;20828;-91
2022/03/12 04:34:14;;;;;;;9.47;8.00;;;10.10;33.80;;;;;;4921962;29;20734;-92
2022/03/12 04:36:46;;;;;;;9.10;8.30;;;10.10;33.90;;;;;;4931062;29;20438;-92
2022/03/12 04:39:12;;;;;;;8.53;7.80;;;10.10;34.00;;;;;;4922855;29;20446;-91
2022/03/12 04:41:39;;;;;;;9.67;8.77;;;10.10;34.10;;;;;;4928793;29;20460;-92
2022/03/12 04:44:07;;;;;;;8.07;7.37;;;10.60;34.70;;;;;;4932129;29;20442;-91
2022/03/12 04:46:37;;;;;;;8.80;8.10;;;10.00;34.40;;;;;;4916348;29;20419;-90
2022/03/12 04:49:04;;;;;;;9.27;8.47;;;10.00;34.40;;;;;;4928036;29;20453;-90
2022/03/12 04:51:31;;;;;;;9.17;7.90;;;9.90;35.10;;;;;;4924587;29;20455;-91
2022/03/12 04:54:01;;;;;;;8.40;7.70;;;10.00;34.50;;;;;;4937067;29;20850;-91
2022/03/12 04:56:27;;;;;;;8.83;8.03;;;10.00;34.60;;;;;;4916685;29;20447;-91
2022/03/12 04:58:54;;;;;;;8.40;7.60;;;10.40;34.90;;;;;;4935792;29;20462;-91
2022/03/12 05:01:28;;;;;;;8.83;7.70;;;10.10;34.90;;;;;;4916461;29;20566;-91
2022/03/12 05:03:53;;;;;;;8.43;7.63;;;10.10;34.80;;;;;;4926545;29;20483;-91
2022/03/12 05:06:19;;;;;;;9.37;8.03;;;10.00;35.10;;;;;;4931789;29;20438;-93
2022/03/12 05:08:46;;;;;;;7.93;7.13;;;9.60;35.50;;;;;;4934346;29;20209;-91
2022/03/12 05:11:11;;;;;;;8.20;7.60;;;10.10;35.10;;;;;;4956127;29;20510;-91
2022/03/12 05:13:37;;;;;;;9.20;6.77;;;10.10;35.30;;;;;;4944229;29;20739;-91
2022/03/12 05:16:08;;;;;;;8.40;7.60;;;9.90;36.10;;;;;;4950268;28;20720;-90
2022/03/12 05:18:36;;;;;;;8.90;8.20;;;10.00;35.50;;;;;;4943883;29;20773;-93
2022/03/12 05:21:03;;;;;;;8.33;7.63;;;10.00;35.60;;;;;;4921880;29;20518;-91
2022/03/12 05:23:29;;;;;;;10.80;9.40;;;12.20;37.20;;;;;;4933759;29;20450;-91
2022/03/12 05:25:55;;;;;;;8.00;7.40;;;9.10;35.80;;;;;;4920762;29;20431;-91
2022/03/12 05:28:24;;;;;;;7.50;6.90;;;11.90;37.40;;;;;;4941662;29;20952;-91
2022/03/12 05:30:52;;;;;;;8.27;7.57;;;9.80;36.80;;;;;;4919391;29;20230;-92
2022/03/12 05:33:19;;;;;;;9.40;8.40;;;9.80;36.90;;;;;;4946080;29;20446;-92
2022/03/12 05:35:46;;;;;;;7.80;7.20;;;9.90;37.00;;;;;;4916856;29;20514;-90
2022/03/12 05:38:12;;;;;;;7.97;7.13;;;9.80;37.20;;;;;;4918049;29;20446;-91
2022/03/12 05:40:39;;;;;;;8.23;7.43;;;9.70;37.30;;;;;;4922118;29;20467;-92
2022/03/12 05:43:12;;;;;;;10.13;7.87;;;9.70;37.50;;;;;;4927520;29;20448;-91
2022/03/12 05:45:39;;;;;;;8.90;8.10;;;9.60;37.70;;;;;;4923648;29;20427;-90
2022/03/12 05:48:08;;;;;;;8.87;8.27;;;9.20;37.80;;;;;;4917583;29;20723;-91
2022/03/12 05:50:34;;;;;;;9.17;7.47;;;9.50;38.30;;;;;;4930885;29;20490;-90
2022/03/12 05:53:01;;;;;;;10.37;8.40;;;9.40;38.70;;;;;;4949624;29;20458;-91
2022/03/12 05:55:27;;;;;;;7.87;7.07;;;9.70;38.90;;;;;;4934410;29;20934;-91
2022/03/12 05:57:53;;;;;;;8.60;7.83;;;9.40;39.10;;;;;;4935628;29;20450;-92
2022/03/12 06:00:19;;;;;;;10.43;9.10;;;11.50;40.20;;;;;;4951192;29;20477;-92
2022/03/12 06:02:51;;;;;;;8.57;7.13;;;9.40;40.00;;;;;;4931188;29;20194;-91
2022/03/12 06:05:19;;;;;;;10.20;7.70;;;9.10;39.40;;;;;;4934927;29;20856;-93
2022/03/12 06:07:45;;;;;;;7.70;7.00;;;9.50;39.70;;;;;;4914122;29;20470;-91
2022/03/12 06:10:13;;;;;;;9.13;8.43;;;10.70;40.10;;;;;;4924107;29;20435;-92
2022/03/12 06:12:42;;;;;;;7.73;7.03;;;10.20;40.60;;;;;;4930842;29;20446;-92
2022/03/12 06:15:08;;;;;;;8.77;7.80;;;9.60;40.80;;;;;;4579213;29;9999823;-91
2022/03/12 06:17:34;;;;;;;8.37;7.57;;;9.50;41.00;;;;;;4929090;29;20198;-92
2022/03/12 06:19:59;;;;;;;8.63;7.70;;;8.50;41.60;;;;;;4923294;29;20790;-92
2022/03/12 06:22:25;;;;;;;9.17;8.33;;;9.10;42.20;;;;;;4922686;29;20198;-91
2022/03/12 06:24:51;;;;;;;9.07;6.63;;;9.10;42.40;;;;;;4920253;29;20669;-92
2022/03/12 06:27:17;;;;;;;7.70;7.00;;;9.50;42.20;;;;;;4918402;29;20398;-92
2022/03/12 06:29:42;;;;;;;9.80;8.90;;;9.60;43.30;;;;;;4923815;29;20936;-92
2022/03/12 06:32:09;;;;;;;8.87;8.13;;;8.70;42.30;;;;;;4940823;29;20432;-89
2022/03/12 06:34:35;;;;;;;8.77;7.83;;;9.70;42.30;;;;;;4925883;29;20281;-91
2022/03/12 06:37:02;;;;;;;7.70;7.10;;;10.90;42.50;;;;;;4932778;29;20505;-91
2022/03/12 06:39:27;;;;;;;9.33;8.17;;;9.80;42.50;;;;;;4939370;29;20230;-91
2022/03/12 06:41:54;;;;;;;9.00;8.07;;;11.40;42.90;;;;;;4953184;29;20426;-91
2022/03/12 06:44:20;;;;;;;9.70;7.70;;;9.90;43.00;;;;;;4938212;29;20194;-91
2022/03/12 06:46:50;;;;;;;10.60;8.00;;;10.00;42.40;;;;;;4945734;29;20443;-91
2022/03/12 06:49:15;;;;;;;8.60;7.80;;;10.00;42.50;;;;;;4936680;29;20450;-89
2022/03/12 06:51:42;;;;;;;7.77;7.03;;;10.30;42.40;;;;;;4952300;29;20453;-88
2022/03/12 06:54:08;;;;;;;8.73;7.93;;;10.60;42.80;;;;;;4941800;29;20187;-93
2022/03/12 06:56:38;;;;;;;8.10;7.33;;;10.90;42.30;;;;;;4944203;29;20426;-90
2022/03/12 06:59:04;;;;;;;8.13;7.13;;;11.50;42.00;;;;;;4919368;29;20462;-91
2022/03/12 07:01:29;;;;;;;9.00;8.00;;;12.10;41.50;;;;;;4925433;29;20426;-92
2022/03/12 07:03:55;;;;;;;8.50;7.87;;;12.70;41.40;;;;;;4934857;29;20179;-92
2022/03/12 07:06:21;;;;;;;9.20;8.40;;;13.20;40.60;;;;;;4938182;29;20197;-92
2022/03/12 07:08:47;;;;;;;8.03;7.40;;;13.60;40.10;;;;;;4944163;29;20211;-90
2022/03/12 07:11:15;;;;;;;8.10;7.30;;;13.80;39.90;;;;;;4924561;29;20227;-91
2022/03/12 07:13:42;;;;;;;7.20;6.57;;;14.00;40.00;;;;;;4938691;29;20510;-91
2022/03/12 07:16:07;;;;;;;9.63;8.60;;;13.40;40.40;;;;;;4933611;29;20435;-92
2022/03/12 07:18:33;;;;;;;7.63;7.13;;;13.90;42.10;;;;;;4936357;29;20439;-89
2022/03/12 07:20:59;;;;;;;8.07;7.27;;;13.00;42.50;;;;;;4936952;29;20322;-92
2022/03/12 07:23:25;;;;;;;8.33;7.63;;;13.10;42.00;;;;;;4928898;29;20309;-91
2022/03/12 07:25:52;;;;;;;7.93;7.43;;;13.00;42.10;;;;;;4919503;29;20741;-92
2022/03/12 07:28:19;;;;;;;7.80;7.27;;;13.20;42.30;;;;;;4926934;29;20573;-91
2022/03/12 07:31:25;;;;;;;7.53;6.97;;;12.60;42.20;;;;;;4945641;29;20948;-92
2022/03/12 07:34:50;;;;;;;7.80;7.20;;;12.60;42.70;;;;;;4941911;29;20442;-91
2022/03/12 07:38:15;;;;;;;8.40;7.17;;;12.70;42.60;;;;;;4948412;28;20949;-91
2022/03/12 07:41:40;;;;;;;8.17;7.57;;;12.90;42.60;;;;;;4938256;29;20462;-91
2022/03/12 07:45:26;;;;;;;7.40;6.90;;;13.30;42.30;;;;;;4965304;29;20497;-89
2022/03/12 07:48:57;;;;;;;7.60;6.90;;;14.00;42.70;;;;;;4955740;29;20549;-90
2022/03/12 07:55:46;;;;;;;7.70;7.10;;;16.00;41.80;;;;;;4887684;29;20438;-85
2022/03/12 07:58:14;;;;;;;7.70;7.30;;;16.10;39.90;;;;;;4940775;29;20447;-88
2022/03/12 08:00:42;;;;;;;6.50;6.10;;;17.40;42.50;;;;;;4935159;29;20702;-86
2022/03/12 08:03:08;;;;;;;8.27;7.50;;;16.60;41.90;;;;;;4946787;29;20434;-86
2022/03/12 08:05:37;;;;;;;7.43;6.93;;;15.70;43.20;;;;;;4949568;29;20520;-85
2022/03/12 08:08:35;;;;;;;7.83;7.30;;;17.00;42.80;;;;;;4948875;29;20509;-86
2022/03/12 08:14:30;;;;;;;6.30;5.90;;;15.70;41.20;;;;;;4952406;29;20415;-86
2022/03/12 08:17:56;;;;;;;7.20;6.70;;;16.60;40.90;;;;;;4899043;29;20431;-86
2022/03/12 08:20:30;;;;;;;6.80;6.50;;;16.60;40.70;;;;;;4856055;29;20436;-85
2022/03/12 08:22:55;;;;;;;7.30;6.80;;;16.70;40.80;;;;;;4849976;29;20434;-85
2022/03/12 08:25:24;;;;;;;8.77;7.97;;;16.70;41.50;;;;;;4907147;29;20470;-87
2022/03/12 08:27:50;;;;;;;7.50;6.90;;;16.20;41.40;;;;;;4915649;29;20468;-85
2022/03/12 08:30:16;;;;;;;7.70;7.30;;;16.10;41.70;;;;;;4921626;29;20534;-86
2022/03/12 08:33:09;;;;;;;7.33;6.93;;;15.90;41.90;;;;;;4922623;29;20192;-87
2022/03/12 08:35:40;;;;;;;7.97;7.27;;;16.10;41.80;;;;;;4945854;29;20485;-85
2022/03/12 08:38:11;;;;;;;8.00;7.30;;;17.30;42.40;;;;;;4918600;29;20432;-86
2022/03/12 08:40:39;;;;;;;9.17;8.50;;;16.70;41.40;;;;;;4918311;29;20487;-86
2022/03/12 08:43:05;;;;;;;8.20;7.37;;;16.70;42.00;;;;;;4951705;29;20435;-87
2022/03/12 08:45:53;;;;;;;6.93;6.43;;;16.60;41.90;;;;;;4911397;29;20441;-85
2022/03/12 08:48:21;;;;;;;7.10;6.70;;;16.30;41.20;;;;;;4922553;29;20244;-82
2022/03/12 08:50:49;;;;;;;7.40;7.00;;;16.40;42.80;;;;;;4909583;29;20973;-83
2022/03/12 08:53:18;;;;;;;8.30;7.70;;;17.30;42.80;;;;;;4904609;29;20554;-87
2022/03/12 08:55:43;;;;;;;8.53;7.93;;;16.60;43.10;;;;;;4922560;29;20419;-85
2022/03/12 08:58:10;;;;;;;8.60;7.80;;;16.50;42.00;;;;;;4919486;29;20436;-87
2022/03/12 09:00:43;;;;;;;8.70;7.83;;;16.30;42.20;;;;;;4939611;29;20193;-86
2022/03/12 09:03:12;;;;;;;8.23;6.20;;;15.20;42.10;;;;;;4938564;29;20435;-86
2022/03/12 09:05:38;;;;;;;8.23;7.70;;;17.60;42.80;;;;;;4922475;29;20497;-86
2022/03/12 09:08:04;;;;;;;8.20;7.40;;;16.60;42.90;;;;;;4922035;29;20480;-86
2022/03/12 09:10:30;;;;;;;8.87;8.27;;;16.80;43.30;;;;;;4940595;29;20443;-85
2022/03/12 09:12:56;;;;;;;8.23;7.73;;;18.90;44.00;;;;;;4914640;29;20439;-87
2022/03/12 09:15:24;;;;;;;7.93;7.37;;;18.10;42.70;;;;;;4938084;29;20430;-84
2022/03/12 09:17:54;;;;;;;8.03;7.30;;;18.10;43.00;;;;;;4917912;29;20463;-86
2022/03/12 09:20:26;;;;;;;7.83;7.40;;;18.30;41.90;;;;;;4939465;29;20655;-88
2022/03/12 09:22:54;;;;;;;7.47;7.03;;;19.40;43.00;;;;;;4918359;29;20929;-86
2022/03/12 09:25:20;;;;;;;8.50;7.90;;;19.70;43.20;;;;;;4932332;29;20451;-82
2022/03/12 09:27:46;;;;;;;7.57;7.13;;;19.20;41.70;;;;;;4924529;29;20482;-83
2022/03/12 09:30:13;;;;;;;7.80;7.30;;;18.30;40.80;;;;;;4912884;29;20218;-82
2022/03/12 09:32:39;;;;;;;8.93;8.13;;;18.50;40.40;;;;;;4900991;29;20207;-82
2022/03/12 09:35:06;;;;;;;7.77;7.27;;;18.90;40.50;;;;;;4912029;29;20462;-81
2022/03/12 09:37:32;;;;;;;7.90;7.30;;;18.90;40.10;;;;;;4219014;29;10001280;-83
2022/03/12 09:39:59;;;;;;;7.97;7.50;;;18.80;40.40;;;;;;4913881;29;20219;-82
2022/03/12 09:42:28;;;;;;;7.60;7.10;;;18.60;40.20;;;;;;4905052;29;20461;-83
2022/03/12 09:44:54;;;;;;;12.77;7.90;;;18.40;40.50;;;;;;4915134;29;20999;-82
2022/03/12 09:47:19;;;;;;;8.23;7.63;;;18.10;40.40;;;;;;4900397;29;20479;-82
2022/03/12 09:49:45;;;;;;;7.50;6.93;;;17.90;40.90;;;;;;4896489;29;20466;-82
2022/03/12 09:52:11;;;;;;;9.07;8.03;;;18.00;41.30;;;;;;4919304;29;20212;-82
2022/03/12 09:54:37;;;;;;;7.63;7.20;;;18.20;40.90;;;;;;4903484;29;20202;-81
2022/03/12 09:57:03;;;;;;;8.00;7.50;;;18.50;40.80;;;;;;4927327;29;20427;-81
2022/03/12 09:59:29;;;;;;;8.57;7.87;;;18.10;40.80;;;;;;4891810;29;20455;-81
2022/03/12 10:01:55;;;;;;;8.07;7.47;;;17.40;41.30;;;;;;4907373;29;20427;-83
2022/03/12 10:04:21;;;;;;;8.00;7.40;;;17.20;41.80;;;;;;4922587;29;20247;-81
2022/03/12 10:06:47;;;;;;;10.13;8.57;;;17.40;42.10;;;;;;4920853;29;20419;-80
2022/03/12 10:09:13;;;;;;;8.80;8.10;;;17.30;41.90;;;;;;4927998;29;20806;-80
2022/03/12 10:11:41;;;;;;;16.97;8.57;;;17.40;41.90;;;;;;4918791;29;20791;-81
2022/03/12 10:14:08;;;;;;;8.27;7.60;;;17.80;41.70;;;;;;4903455;29;20226;-83
2022/03/12 10:16:55;;;;;;;8.63;8.03;;;17.90;41.40;;;;;;4916893;29;20486;-83
2022/03/12 10:19:20;;;;;;;8.80;8.10;;;18.00;41.40;;;;;;4915365;29;20444;-83
2022/03/12 10:21:52;;;;;;;7.93;7.43;;;18.70;41.40;;;;;;4912259;29;20525;-85
2022/03/12 10:24:18;;;;;;;10.33;9.53;;;18.70;42.30;;;;;;4916381;29;20200;-86
2022/03/12 10:26:44;;;;;;;8.53;7.83;;;18.20;41.30;;;;;;4922957;29;20572;-85
2022/03/12 10:29:13;;;;;;;9.03;8.43;;;19.40;43.30;;;;;;4937371;29;20555;-83
2022/03/12 10:31:41;;;;;;;9.47;8.87;;;17.40;42.80;;;;;;4579996;29;10000669;-85
2022/03/12 10:34:24;;;;;;;9.30;8.60;;;19.20;43.40;;;;;;4916000;29;20202;-85
2022/03/12 10:36:56;;;;;;;10.00;9.20;;;19.60;42.30;;;;;;4915141;29;20452;-83
2022/03/12 10:39:34;;;;;;;8.93;8.23;;;19.20;40.50;;;;;;4923848;29;20423;-81
2022/03/12 10:42:07;;;;;;;8.33;7.73;;;19.80;41.30;;;;;;4922918;29;20522;-88
2022/03/12 10:44:43;;;;;;;9.07;8.47;;;20.80;40.00;;;;;;4915383;29;20422;-85
2022/03/12 10:47:18;;;;;;;9.03;8.13;;;22.00;38.90;;;;;;4932697;29;20544;-87
2022/03/12 10:50:02;;;;;;;11.07;7.70;;;22.60;38.40;;;;;;4925316;29;20454;-87
2022/03/12 10:52:32;;;;;;;8.23;7.73;;;22.50;37.80;;;;;;4930939;29;20462;-86
2022/03/12 10:55:30;;;;;;;9.07;8.37;;;20.80;37.20;;;;;;4938614;29;20417;-86
2022/03/12 10:58:57;;;;;;;7.23;6.83;;;21.70;38.00;;;;;;4938353;29;20432;-85
2022/03/12 11:01:26;;;;;;;7.80;7.30;;;21.50;38.10;;;;;;4907953;29;20463;-85
2022/03/12 11:03:58;;;;;;;7.07;6.43;;;21.80;37.90;;;;;;4946200;29;20439;-84
2022/03/12 11:06:27;;;;;;;7.90;7.30;;;22.20;38.30;;;;;;4948782;29;20442;-83
2022/03/12 11:09:05;;;;;;;7.93;7.20;;;22.40;37.70;;;;;;4931783;29;20476;-83
2022/03/12 11:11:58;;;;;;;8.77;8.17;;;22.70;38.50;;;;;;4927861;29;20456;-86
2022/03/12 11:15:00;;;;;;;8.97;8.27;;;22.30;38.10;;;;;;4934893;29;20427;-83
2022/03/12 11:17:48;;;;;;;7.17;6.87;;;21.00;37.30;;;;;;4932138;29;20422;-86
2022/03/12 11:20:27;;;;;;;7.03;6.60;;;22.00;37.80;;;;;;4928885;29;20443;-83
2022/03/12 11:23:21;;;;;;;6.33;6.03;;;21.90;38.20;;;;;;4946079;29;20455;-85
2022/03/12 11:26:06;;;;;;;6.93;6.47;;;23.00;38.90;;;;;;4933275;29;20439;-85
2022/03/12 11:29:09;;;;;;;;;;;;;;;;;;;;;
2022/03/12 11:31:49;;;;;;;7.20;6.80;;;24.30;39.30;;;;;;4907812;29;20436;-86
2022/03/12 11:34:20;;;;;;;7.73;7.13;;;22.60;38.30;;;;;;4918139;29;20424;-82
2022/03/12 11:37:27;;;;;;;7.43;7.03;;;22.20;38.10;;;;;;4933072;29;20520;-86
2022/03/12 11:39:56;;;;;;;7.00;6.63;;;21.40;38.20;;;;;;4940111;29;20431;-85
2022/03/12 11:42:31;;;;;;;7.63;7.20;;;20.80;38.90;;;;;;4915785;29;20424;-85
2022/03/12 11:45:06;;;;;;;8.83;8.27;;;21.70;40.50;;;;;;4927925;29;20470;-85
2022/03/12 11:47:34;;;;;;;7.40;7.00;;;20.10;39.50;;;;;;4923829;29;20513;-86
2022/03/12 11:50:03;;;;;;;6.73;6.33;;;21.20;41.60;;;;;;4919511;29;20443;-85
2022/03/12 11:52:36;;;;;;;7.77;7.27;;;19.20;40.10;;;;;;4923228;29;20504;-87
2022/03/12 11:55:03;;;;;;;7.00;6.47;;;19.00;40.20;;;;;;4913035;29;20436;-86
2022/03/12 11:57:34;;;;;;;6.73;6.33;;;19.30;40.40;;;;;;4944083;29;20420;-89
2022/03/12 12:00:03;;;;;;;7.20;6.70;;;19.10;41.00;;;;;;4913361;29;20447;-86
2022/03/12 12:02:34;;;;;;;6.60;6.20;;;19.30;41.00;;;;;;4929306;29;20424;-85
2022/03/12 12:05:12;;;;;;;6.57;6.10;;;18.80;41.00;;;;;;4924192;29;20894;-85
2022/03/12 12:07:39;;;;;;;6.93;6.53;;;18.90;41.10;;;;;;4904502;29;20482;-84
2022/03/12 12:10:13;;;;;;;5.97;5.73;;;18.50;41.90;;;;;;4910981;29;20476;-84
2022/03/12 12:12:39;;;;;;;6.90;6.50;;;18.60;41.40;;;;;;4929976;29;20451;-84
2022/03/12 12:15:14;;;;;;;6.90;6.60;;;18.10;41.80;;;;;;4930953;29;20418;-85
2022/03/12 12:17:42;;;;;;;6.90;6.47;;;18.00;42.50;;;;;;4925801;29;20423;-82
2022/03/12 12:20:15;;;;;;;6.00;5.40;;;17.90;41.90;;;;;;4922690;29;20939;-83
2022/03/12 12:22:51;;;;;;;5.73;5.40;;;18.20;42.00;;;;;;4938958;29;20411;-86
2022/03/12 12:25:21;;;;;;;6.40;6.00;;;18.50;42.70;;;;;;4912452;29;20451;-86
2022/03/12 12:27:50;;;;;;;5.30;5.03;;;18.60;41.70;;;;;;4929758;29;20476;-86
2022/03/12 12:30:43;;;;;;;5.53;5.13;;;18.90;42.00;;;;;;4911214;29;20491;-85
2022/03/12 12:33:40;;;;;;;4.57;4.27;;;20.60;42.80;;;;;;4927346;29;20404;-87
2022/03/12 12:36:17;;;;;;;5.07;4.67;;;19.20;41.20;;;;;;4927820;29;20428;-85
2022/03/12 12:39:27;;;;;;;;;;;;;;;;;;;;;
2022/03/12 12:41:54;;;;;;;6.33;6.03;;;20.00;40.70;;;;;;4928162;29;20443;-87
2022/03/12 12:44:39;;;;;;;5.40;5.07;;;19.10;41.80;;;;;;4919253;29;20431;-87
2022/03/12 12:47:15;;;;;;;5.57;5.20;;;18.60;41.70;;;;;;4942919;29;20457;-88
2022/03/12 12:49:55;;;;;;;4.27;4.17;;;18.80;41.70;;;;;;4925446;29;20550;-86
2022/03/12 12:52:30;;;;;;;5.40;5.10;;;18.60;41.60;;;;;;4941308;29;20439;-83
2022/03/12 12:55:06;;;;;;;6.07;5.60;;;17.60;41.60;;;;;;4921170;29;20522;-85
2022/03/12 12:58:08;;;;;;;5.63;5.30;;;18.60;44.20;;;;;;4940215;29;20426;-81
2022/03/12 13:00:42;;;;;;;4.80;4.60;;;17.80;42.90;;;;;;4913755;29;20443;-85
2022/03/12 13:03:17;;;;;;;5.20;4.90;;;17.90;42.80;;;;;;4938927;29;20437;-86
2022/03/12 13:05:46;;;;;;;4.50;4.20;;;18.20;42.20;;;;;;4935679;29;20426;-87
2022/03/12 13:08:20;;;;;;;3.60;3.50;;;18.10;42.70;;;;;;4940109;29;20463;-86
2022/03/12 13:10:52;;;;;;;4.87;4.43;;;18.20;42.90;;;;;;4925274;29;20460;-86
2022/03/12 13:13:26;;;;;;;5.10;4.80;;;17.80;43.20;;;;;;4939257;29;20480;-87
2022/03/12 13:15:54;;;;;;;3.97;3.87;;;17.60;42.30;;;;;;4934290;29;20420;-86
2022/03/12 13:18:20;;;;;;;4.40;4.20;;;17.60;43.20;;;;;;4917108;29;20416;-85
2022/03/12 13:20:53;;;;;;;6.10;5.70;;;18.00;42.70;;;;;;4906902;29;20521;-85
2022/03/12 13:23:36;;;;;;;6.87;6.37;;;17.70;43.30;;;;;;4921550;29;20203;-85
2022/03/12 13:26:02;;;;;;;5.27;5.10;;;17.20;42.70;;;;;;4919737;29;20423;-85
2022/03/12 13:28:43;;;;;;;6.57;6.10;;;18.80;44.10;;;;;;4922555;29;20482;-85
2022/03/12 13:31:31;;;;;;;6.80;6.47;;;17.40;43.20;;;;;;4907150;29;20439;-84
2022/03/12 13:34:12;;;;;;;6.00;5.80;;;17.40;43.00;;;;;;4921818;29;20416;-85
2022/03/12 13:36:54;;;;;;;6.03;5.70;;;17.50;42.90;;;;;;4932179;29;20427;-84
2022/03/12 13:39:22;;;;;;;6.15;5.57;;;17.60;45.20;;;;;;4221438;29;10001409;-84
2022/03/12 13:41:49;;;;;;;8.00;5.77;;;18.50;43.70;;;;;;4898064;29;20199;-86
2022/03/12 13:44:19;;;;;;;5.93;5.63;;;17.70;44.10;;;;;;4915166;29;20459;-86
2022/03/12 13:46:52;;;;;;;5.83;5.37;;;17.40;43.20;;;;;;4920497;29;20808;-85
2022/03/12 13:49:21;;;;;;;5.80;5.57;;;17.30;43.20;;;;;;4922864;29;20595;-85
2022/03/12 13:51:52;;;;;;;5.77;5.47;;;18.00;43.60;;;;;;4901588;29;20428;-85
2022/03/12 13:54:21;;;;;;;6.20;5.70;;;17.40;42.60;;;;;;4918012;29;20955;-86
2022/03/12 13:59:30;;;;;;;8.50;6.47;;;17.80;42.60;;;;;;4956103;29;20525;-89